sensor_id;sensor_type;location;lat;lon;timestamp;pressure;altitude;pressure_sealevel;temperature;humidity
69127;BME280;56688;50.234;19.292;2024-02-15T00:02:24;98995.14;;;6.83;68.82
69127;BME280;56688;50.234;19.292;2024-02-15T00:04:51;98995.31;;;6.81;68.75
69127;BME280;56688;50.234;19.292;2024-02-15T00:07:18;98993.94;;;6.79;68.83
69127;BME280;56688;50.234;19.292;2024-02-15T00:09:49;98995.45;;;6.76;69.20
69127;BME280;56688;50.234;19.292;2024-02-15T00:12:16;98994.61;;;6.72;69.18
69127;BME280;56688;50.234;19.292;2024-02-15T00:14:43;98998.47;;;6.68;69.59
69127;BME280;56688;50.234;19.292;2024-02-15T00:17:10;98999.02;;;6.68;70.01
69127;BME280;56688;50.234;19.292;2024-02-15T00:19:38;99001.27;;;6.71;70.38
69127;BME280;56688;50.234;19.292;2024-02-15T00:22:09;99006.63;;;6.76;70.43
69127;BME280;56688;50.234;19.292;2024-02-15T00:24:37;99006.40;;;6.83;70.41
69127;BME280;56688;50.234;19.292;2024-02-15T00:27:07;99005.88;;;6.92;70.18
69127;BME280;56688;50.234;19.292;2024-02-15T00:29:34;99009.73;;;7.00;70.04
69127;BME280;56688;50.234;19.292;2024-02-15T00:32:01;99009.19;;;7.05;69.51
69127;BME280;56688;50.234;19.292;2024-02-15T00:34:32;99012.36;;;7.09;69.44
69127;BME280;56688;50.234;19.292;2024-02-15T00:36:59;99015.89;;;7.10;69.40
69127;BME280;56688;50.234;19.292;2024-02-15T00:39:26;99015.27;;;7.11;69.24
69127;BME280;56688;50.234;19.292;2024-02-15T00:41:53;99022.56;;;7.13;69.27
69127;BME280;56688;50.234;19.292;2024-02-15T00:44:22;99023.19;;;7.12;69.43
69127;BME280;56688;50.234;19.292;2024-02-15T00:46:49;99024.60;;;7.12;69.17
69127;BME280;56688;50.234;19.292;2024-02-15T00:49:17;99022.25;;;7.12;69.63
69127;BME280;56688;50.234;19.292;2024-02-15T00:51:47;99021.39;;;7.16;69.73
69127;BME280;56688;50.234;19.292;2024-02-15T00:54:15;99024.77;;;7.19;69.51
69127;BME280;56688;50.234;19.292;2024-02-15T00:56:42;99025.44;;;7.21;69.39
69127;BME280;56688;50.234;19.292;2024-02-15T00:59:09;99028.27;;;7.23;69.44
69127;BME280;56688;50.234;19.292;2024-02-15T01:01:36;99031.90;;;7.24;69.46
69127;BME280;56688;50.234;19.292;2024-02-15T01:04:04;99034.02;;;7.24;69.71
69127;BME280;56688;50.234;19.292;2024-02-15T01:06:32;99033.98;;;7.24;69.57
69127;BME280;56688;50.234;19.292;2024-02-15T01:09:00;99035.64;;;7.22;69.87
69127;BME280;56688;50.234;19.292;2024-02-15T01:11:30;99034.39;;;7.22;69.52
69127;BME280;56688;50.234;19.292;2024-02-15T01:13:59;99033.92;;;7.25;70.13
69127;BME280;56688;50.234;19.292;2024-02-15T01:16:26;99037.91;;;7.30;69.79
69127;BME280;56688;50.234;19.292;2024-02-15T01:18:53;99036.27;;;7.33;69.85
69127;BME280;56688;50.234;19.292;2024-02-15T01:21:20;99035.76;;;7.35;69.57
69127;BME280;56688;50.234;19.292;2024-02-15T01:23:48;99038.78;;;7.37;69.37
69127;BME280;56688;50.234;19.292;2024-02-15T01:26:15;99035.45;;;7.37;69.37
69127;BME280;56688;50.234;19.292;2024-02-15T01:28:42;99038.64;;;7.37;69.27
69127;BME280;56688;50.234;19.292;2024-02-15T01:31:11;99037.08;;;7.36;69.61
69127;BME280;56688;50.234;19.292;2024-02-15T01:33:39;99036.09;;;7.35;69.39
69127;BME280;56688;50.234;19.292;2024-02-15T01:36:07;99036.41;;;7.34;69.51
69127;BME280;56688;50.234;19.292;2024-02-15T01:38:35;99032.78;;;7.33;69.59
69127;BME280;56688;50.234;19.292;2024-02-15T01:41:03;99029.50;;;7.32;69.63
69127;BME280;56688;50.234;19.292;2024-02-15T01:43:30;99026.02;;;7.33;69.67
69127;BME280;56688;50.234;19.292;2024-02-15T01:45:57;99020.92;;;7.34;69.65
69127;BME280;56688;50.234;19.292;2024-02-15T01:48:29;99019.80;;;7.35;69.78
69127;BME280;56688;50.234;19.292;2024-02-15T01:50:57;99016.61;;;7.37;69.63
69127;BME280;56688;50.234;19.292;2024-02-15T01:53:25;99016.98;;;7.37;69.60
69127;BME280;56688;50.234;19.292;2024-02-15T01:55:53;99017.98;;;7.37;69.97
69127;BME280;56688;50.234;19.292;2024-02-15T01:58:21;99017.08;;;7.38;69.97
69127;BME280;56688;50.234;19.292;2024-02-15T02:00:49;99014.02;;;7.36;70.00
69127;BME280;56688;50.234;19.292;2024-02-15T02:03:16;99015.75;;;7.37;70.23
69127;BME280;56688;50.234;19.292;2024-02-15T02:05:43;99014.95;;;7.38;70.35
69127;BME280;56688;50.234;19.292;2024-02-15T02:08:10;99013.44;;;7.40;70.25
69127;BME280;56688;50.234;19.292;2024-02-15T02:10:38;99012.74;;;7.42;70.05
69127;BME280;56688;50.234;19.292;2024-02-15T02:13:05;99011.86;;;7.43;69.85
69127;BME280;56688;50.234;19.292;2024-02-15T02:15:32;99006.48;;;7.44;69.82
69127;BME280;56688;50.234;19.292;2024-02-15T02:18:00;99003.52;;;7.45;69.88
69127;BME280;56688;50.234;19.292;2024-02-15T02:20:28;99003.66;;;7.44;69.65
69127;BME280;56688;50.234;19.292;2024-02-15T02:23:13;98999.64;;;7.40;70.00
69127;BME280;56688;50.234;19.292;2024-02-15T02:25:41;99005.88;;;7.34;70.26
69127;BME280;56688;50.234;19.292;2024-02-15T02:28:09;99000.54;;;7.29;70.39
69127;BME280;56688;50.234;19.292;2024-02-15T02:30:38;99000.45;;;7.29;70.47
69127;BME280;56688;50.234;19.292;2024-02-15T02:33:12;99001.00;;;7.29;70.45
69127;BME280;56688;50.234;19.292;2024-02-15T02:35:47;98996.95;;;7.30;70.81
69127;BME280;56688;50.234;19.292;2024-02-15T02:38:15;98992.73;;;7.30;70.78
69127;BME280;56688;50.234;19.292;2024-02-15T02:40:43;98992.20;;;7.28;71.10
69127;BME280;56688;50.234;19.292;2024-02-15T02:43:10;98996.59;;;7.28;70.84
69127;BME280;56688;50.234;19.292;2024-02-15T02:45:39;98998.11;;;7.25;70.78
69127;BME280;56688;50.234;19.292;2024-02-15T02:48:06;98996.94;;;7.23;70.99
69127;BME280;56688;50.234;19.292;2024-02-15T02:50:34;98993.78;;;7.19;71.46
69127;BME280;56688;50.234;19.292;2024-02-15T02:53:01;98995.08;;;7.17;71.39
69127;BME280;56688;50.234;19.292;2024-02-15T02:55:28;98999.17;;;7.16;71.05
69127;BME280;56688;50.234;19.292;2024-02-15T02:57:55;98997.47;;;7.19;71.36
69127;BME280;56688;50.234;19.292;2024-02-15T03:00:22;98996.16;;;7.25;71.32
69127;BME280;56688;50.234;19.292;2024-02-15T03:02:50;98996.25;;;7.35;71.43
69127;BME280;56688;50.234;19.292;2024-02-15T03:05:17;98996.04;;;7.42;71.13
69127;BME280;56688;50.234;19.292;2024-02-15T03:07:48;98989.39;;;7.46;70.99
69127;BME280;56688;50.234;19.292;2024-02-15T03:10:15;98987.02;;;7.50;70.73
69127;BME280;56688;50.234;19.292;2024-02-15T03:12:42;98980.70;;;7.52;70.55
69127;BME280;56688;50.234;19.292;2024-02-15T03:15:15;98982.09;;;7.50;70.46
69127;BME280;56688;50.234;19.292;2024-02-15T03:17:46;98986.84;;;7.47;70.37
69127;BME280;56688;50.234;19.292;2024-02-15T03:20:13;98986.36;;;7.45;70.27
69127;BME280;56688;50.234;19.292;2024-02-15T03:22:51;98985.80;;;7.45;70.29
69127;BME280;56688;50.234;19.292;2024-02-15T03:25:19;98987.73;;;7.44;70.30
69127;BME280;56688;50.234;19.292;2024-02-15T03:27:46;98991.25;;;7.42;70.53
69127;BME280;56688;50.234;19.292;2024-02-15T03:30:13;98995.61;;;7.43;70.81
69127;BME280;56688;50.234;19.292;2024-02-15T03:32:40;98996.67;;;7.46;70.84
69127;BME280;56688;50.234;19.292;2024-02-15T03:35:08;98995.84;;;7.49;70.75
69127;BME280;56688;50.234;19.292;2024-02-15T03:37:36;98996.34;;;7.51;70.74
69127;BME280;56688;50.234;19.292;2024-02-15T03:40:05;98990.67;;;7.53;70.67
69127;BME280;56688;50.234;19.292;2024-02-15T03:42:32;98991.98;;;7.54;70.83
69127;BME280;56688;50.234;19.292;2024-02-15T03:44:59;98992.34;;;7.54;70.82
69127;BME280;56688;50.234;19.292;2024-02-15T03:47:27;98994.61;;;7.53;70.59
69127;BME280;56688;50.234;19.292;2024-02-15T03:49:56;98996.84;;;7.50;70.58
69127;BME280;56688;50.234;19.292;2024-02-15T03:52:23;98996.04;;;7.47;70.65
69127;BME280;56688;50.234;19.292;2024-02-15T03:54:50;98995.49;;;7.44;70.75
69127;BME280;56688;50.234;19.292;2024-02-15T03:57:19;98995.02;;;7.40;71.03
69127;BME280;56688;50.234;19.292;2024-02-15T03:59:47;98994.29;;;7.37;71.03
69127;BME280;56688;50.234;19.292;2024-02-15T04:02:20;98994.20;;;7.36;71.28
69127;BME280;56688;50.234;19.292;2024-02-15T04:04:47;98987.83;;;7.36;71.16
69127;BME280;56688;50.234;19.292;2024-02-15T04:07:16;98991.26;;;7.37;71.19
69127;BME280;56688;50.234;19.292;2024-02-15T04:09:44;98993.70;;;7.37;70.97
69127;BME280;56688;50.234;19.292;2024-02-15T04:12:12;98991.77;;;7.37;70.74
69127;BME280;56688;50.234;19.292;2024-02-15T04:14:41;98996.64;;;7.36;71.24
69127;BME280;56688;50.234;19.292;2024-02-15T04:17:08;98990.77;;;7.35;71.11
69127;BME280;56688;50.234;19.292;2024-02-15T04:19:35;98992.65;;;7.34;71.00
69127;BME280;56688;50.234;19.292;2024-02-15T04:22:03;98990.75;;;7.32;70.79
69127;BME280;56688;50.234;19.292;2024-02-15T04:24:34;98992.17;;;7.28;71.13
69127;BME280;56688;50.234;19.292;2024-02-15T04:27:01;98993.92;;;7.25;71.25
69127;BME280;56688;50.234;19.292;2024-02-15T04:29:28;98991.35;;;7.22;71.09
69127;BME280;56688;50.234;19.292;2024-02-15T04:31:55;98993.23;;;7.21;71.51
69127;BME280;56688;50.234;19.292;2024-02-15T04:34:24;98998.40;;;7.22;71.49
69127;BME280;56688;50.234;19.292;2024-02-15T04:36:51;98995.55;;;7.26;71.49
69127;BME280;56688;50.234;19.292;2024-02-15T04:39:20;98998.53;;;7.28;71.29
69127;BME280;56688;50.234;19.292;2024-02-15T04:41:51;98996.56;;;7.30;71.19
69127;BME280;56688;50.234;19.292;2024-02-15T04:44:18;98996.27;;;7.31;71.24
69127;BME280;56688;50.234;19.292;2024-02-15T04:46:48;98997.89;;;7.31;71.00
69127;BME280;56688;50.234;19.292;2024-02-15T04:49:16;98996.66;;;7.30;71.00
69127;BME280;56688;50.234;19.292;2024-02-15T04:51:43;99001.21;;;7.28;71.32
69127;BME280;56688;50.234;19.292;2024-02-15T04:54:10;99003.00;;;7.28;71.47
69127;BME280;56688;50.234;19.292;2024-02-15T04:56:40;99007.58;;;7.26;71.40
69127;BME280;56688;50.234;19.292;2024-02-15T04:59:08;99010.63;;;7.26;71.27
69127;BME280;56688;50.234;19.292;2024-02-15T05:01:38;99011.41;;;7.27;71.77
69127;BME280;56688;50.234;19.292;2024-02-15T05:04:06;99013.21;;;7.30;72.02
69127;BME280;56688;50.234;19.292;2024-02-15T05:06:34;99016.11;;;7.35;72.32
69127;BME280;56688;50.234;19.292;2024-02-15T05:09:04;99017.61;;;7.38;72.77
69127;BME280;56688;50.234;19.292;2024-02-15T05:11:34;99018.23;;;7.40;72.54
69127;BME280;56688;50.234;19.292;2024-02-15T05:14:03;99020.80;;;7.43;72.69
69127;BME280;56688;50.234;19.292;2024-02-15T05:16:34;99018.46;;;7.45;72.58
69127;BME280;56688;50.234;19.292;2024-02-15T05:19:01;99019.98;;;7.44;72.01
69127;BME280;56688;50.234;19.292;2024-02-15T05:21:30;99025.21;;;7.43;71.85
69127;BME280;56688;50.234;19.292;2024-02-15T05:23:57;99028.16;;;7.42;71.89
69127;BME280;56688;50.234;19.292;2024-02-15T05:26:24;99024.23;;;7.39;71.98
69127;BME280;56688;50.234;19.292;2024-02-15T05:28:51;99027.42;;;7.35;71.82
69127;BME280;56688;50.234;19.292;2024-02-15T05:31:20;99028.10;;;7.34;72.09
69127;BME280;56688;50.234;19.292;2024-02-15T05:33:47;99026.86;;;7.32;72.08
69127;BME280;56688;50.234;19.292;2024-02-15T05:36:16;99026.44;;;7.33;72.42
69127;BME280;56688;50.234;19.292;2024-02-15T05:38:49;99025.67;;;7.35;72.42
69127;BME280;56688;50.234;19.292;2024-02-15T05:41:16;99029.17;;;7.37;72.32
69127;BME280;56688;50.234;19.292;2024-02-15T05:43:43;99027.98;;;7.38;71.75
69127;BME280;56688;50.234;19.292;2024-02-15T05:46:11;99032.24;;;7.36;71.68
69127;BME280;56688;50.234;19.292;2024-02-15T05:48:39;99032.72;;;7.33;71.66
69127;BME280;56688;50.234;19.292;2024-02-15T05:51:07;99032.28;;;7.31;71.76
69127;BME280;56688;50.234;19.292;2024-02-15T05:53:35;99032.58;;;7.28;71.23
69127;BME280;56688;50.234;19.292;2024-02-15T05:56:05;99037.45;;;7.25;71.47
69127;BME280;56688;50.234;19.292;2024-02-15T05:58:34;99034.71;;;7.22;71.44
69127;BME280;56688;50.234;19.292;2024-02-15T06:01:03;99042.06;;;7.18;71.62
69127;BME280;56688;50.234;19.292;2024-02-15T06:03:33;99040.20;;;7.17;71.78
69127;BME280;56688;50.234;19.292;2024-02-15T06:06:01;99043.73;;;7.19;71.87
69127;BME280;56688;50.234;19.292;2024-02-15T06:08:34;99047.52;;;7.22;72.00
69127;BME280;56688;50.234;19.292;2024-02-15T06:11:02;99047.30;;;7.28;72.20
69127;BME280;56688;50.234;19.292;2024-02-15T06:13:29;99047.60;;;7.34;72.40
69127;BME280;56688;50.234;19.292;2024-02-15T06:15:57;99050.47;;;7.37;72.14
69127;BME280;56688;50.234;19.292;2024-02-15T06:18:26;99051.42;;;7.40;72.03
69127;BME280;56688;50.234;19.292;2024-02-15T06:20:56;99051.89;;;7.42;71.81
69127;BME280;56688;50.234;19.292;2024-02-15T06:23:26;99051.48;;;7.42;71.65
69127;BME280;56688;50.234;19.292;2024-02-15T06:25:56;99054.15;;;7.42;71.78
69127;BME280;56688;50.234;19.292;2024-02-15T06:28:25;99053.91;;;7.41;71.62
69127;BME280;56688;50.234;19.292;2024-02-15T06:31:13;99052.56;;;7.37;71.76
69127;BME280;56688;50.234;19.292;2024-02-15T06:33:59;99054.40;;;7.31;71.85
69127;BME280;56688;50.234;19.292;2024-02-15T06:36:48;99055.94;;;7.28;71.95
69127;BME280;56688;50.234;19.292;2024-02-15T06:39:35;99057.56;;;7.28;72.35
69127;BME280;56688;50.234;19.292;2024-02-15T06:42:10;99057.64;;;7.29;72.21
69127;BME280;56688;50.234;19.292;2024-02-15T06:44:38;99063.02;;;7.32;72.10
69127;BME280;56688;50.234;19.292;2024-02-15T06:47:07;99065.30;;;7.36;72.22
69127;BME280;56688;50.234;19.292;2024-02-15T06:49:39;99064.38;;;7.41;72.18
69127;BME280;56688;50.234;19.292;2024-02-15T06:52:07;99064.73;;;7.46;72.16
69127;BME280;56688;50.234;19.292;2024-02-15T06:54:35;99065.91;;;7.52;72.25
69127;BME280;56688;50.234;19.292;2024-02-15T06:57:03;99068.59;;;7.57;72.03
69127;BME280;56688;50.234;19.292;2024-02-15T06:59:32;99070.16;;;7.63;72.13
69127;BME280;56688;50.234;19.292;2024-02-15T07:02:00;99073.71;;;7.68;72.07
69127;BME280;56688;50.234;19.292;2024-02-15T07:04:27;99075.01;;;7.74;72.10
69127;BME280;56688;50.234;19.292;2024-02-15T07:06:55;99073.92;;;7.79;72.21
69127;BME280;56688;50.234;19.292;2024-02-15T07:09:22;99076.77;;;7.84;72.08
69127;BME280;56688;50.234;19.292;2024-02-15T07:11:51;99073.50;;;7.89;72.17
69127;BME280;56688;50.234;19.292;2024-02-15T07:14:19;99074.16;;;7.95;72.14
69127;BME280;56688;50.234;19.292;2024-02-15T07:16:47;99078.50;;;8.04;71.86
69127;BME280;56688;50.234;19.292;2024-02-15T07:19:16;99075.63;;;8.13;71.57
69127;BME280;56688;50.234;19.292;2024-02-15T07:21:43;99075.67;;;8.21;71.20
69127;BME280;56688;50.234;19.292;2024-02-15T07:24:10;99068.95;;;8.28;71.07
69127;BME280;56688;50.234;19.292;2024-02-15T07:26:38;99068.06;;;8.35;70.64
69127;BME280;56688;50.234;19.292;2024-02-15T07:29:05;99067.14;;;8.42;70.25
69127;BME280;56688;50.234;19.292;2024-02-15T07:31:35;99064.23;;;8.46;70.10
69127;BME280;56688;50.234;19.292;2024-02-15T07:34:02;99065.54;;;8.51;70.18
69127;BME280;56688;50.234;19.292;2024-02-15T07:36:32;99067.35;;;8.53;70.09
69127;BME280;56688;50.234;19.292;2024-02-15T07:38:58;99065.36;;;8.57;69.70
69127;BME280;56688;50.234;19.292;2024-02-15T07:41:29;99066.55;;;8.61;69.39
69127;BME280;56688;50.234;19.292;2024-02-15T07:43:56;99068.17;;;8.66;69.52
69127;BME280;56688;50.234;19.292;2024-02-15T07:46:24;99069.81;;;8.74;69.33
69127;BME280;56688;50.234;19.292;2024-02-15T07:48:51;99063.90;;;8.81;69.15
69127;BME280;56688;50.234;19.292;2024-02-15T07:51:21;99063.08;;;8.90;68.88
69127;BME280;56688;50.234;19.292;2024-02-15T07:53:49;99066.98;;;9.00;68.56
69127;BME280;56688;50.234;19.292;2024-02-15T07:56:17;99066.31;;;9.10;68.21
69127;BME280;56688;50.234;19.292;2024-02-15T07:58:48;99067.76;;;9.21;68.40
69127;BME280;56688;50.234;19.292;2024-02-15T08:01:19;99069.66;;;9.33;67.64
69127;BME280;56688;50.234;19.292;2024-02-15T08:03:48;99064.45;;;9.45;67.68
69127;BME280;56688;50.234;19.292;2024-02-15T08:06:16;99063.27;;;9.65;67.05
69127;BME280;56688;50.234;19.292;2024-02-15T08:08:46;99064.17;;;9.89;66.04
69127;BME280;56688;50.234;19.292;2024-02-15T08:11:14;99062.34;;;10.25;65.21
69127;BME280;56688;50.234;19.292;2024-02-15T08:13:48;99059.94;;;10.65;64.14
69127;BME280;56688;50.234;19.292;2024-02-15T08:16:19;99058.95;;;11.03;63.20
69127;BME280;56688;50.234;19.292;2024-02-15T08:18:47;99060.80;;;11.46;62.38
69127;BME280;56688;50.234;19.292;2024-02-15T08:21:14;99060.55;;;11.74;60.10
69127;BME280;56688;50.234;19.292;2024-02-15T08:23:41;99062.74;;;11.94;60.18
69127;BME280;56688;50.234;19.292;2024-02-15T08:26:10;99061.86;;;12.25;59.40
69127;BME280;56688;50.234;19.292;2024-02-15T08:28:38;99060.14;;;12.64;59.22
69127;BME280;56688;50.234;19.292;2024-02-15T08:31:05;99054.55;;;13.09;57.39
69127;BME280;56688;50.234;19.292;2024-02-15T08:33:34;99055.73;;;13.51;56.43
69127;BME280;56688;50.234;19.292;2024-02-15T08:36:01;99054.70;;;14.03;54.92
69127;BME280;56688;50.234;19.292;2024-02-15T08:38:29;99053.98;;;14.43;53.65
69127;BME280;56688;50.234;19.292;2024-02-15T08:40:56;99058.11;;;14.86;52.72
69127;BME280;56688;50.234;19.292;2024-02-15T08:43:23;99050.96;;;15.27;51.32
69127;BME280;56688;50.234;19.292;2024-02-15T08:45:50;99050.19;;;15.67;50.50
69127;BME280;56688;50.234;19.292;2024-02-15T08:48:17;99048.01;;;16.04;49.07
69127;BME280;56688;50.234;19.292;2024-02-15T08:50:46;99048.55;;;16.37;48.17
69127;BME280;56688;50.234;19.292;2024-02-15T08:53:13;99045.69;;;16.49;46.96
69127;BME280;56688;50.234;19.292;2024-02-15T08:55:42;99044.55;;;16.63;46.47
69127;BME280;56688;50.234;19.292;2024-02-15T08:58:09;99048.20;;;16.65;46.92
69127;BME280;56688;50.234;19.292;2024-02-15T09:00:37;99045.23;;;16.77;46.85
69127;BME280;56688;50.234;19.292;2024-02-15T09:03:07;99047.08;;;16.99;46.52
69127;BME280;56688;50.234;19.292;2024-02-15T09:05:36;99045.16;;;17.25;45.73
69127;BME280;56688;50.234;19.292;2024-02-15T09:08:03;99040.54;;;17.50;45.41
69127;BME280;56688;50.234;19.292;2024-02-15T09:10:31;99044.77;;;17.57;44.53
69127;BME280;56688;50.234;19.292;2024-02-15T09:12:58;99040.59;;;17.59;44.54
69127;BME280;56688;50.234;19.292;2024-02-15T09:15:25;99042.73;;;17.69;44.34
69127;BME280;56688;50.234;19.292;2024-02-15T09:17:52;99040.85;;;17.73;44.16
69127;BME280;56688;50.234;19.292;2024-02-15T09:20:21;99036.26;;;17.87;44.03
69127;BME280;56688;50.234;19.292;2024-02-15T09:25:18;99043.18;;;17.94;43.33
69127;BME280;56688;50.234;19.292;2024-02-15T09:27:46;99044.63;;;17.76;43.60
69127;BME280;56688;50.234;19.292;2024-02-15T09:30:14;99042.75;;;17.82;44.04
69127;BME280;56688;50.234;19.292;2024-02-15T09:32:42;99040.27;;;17.99;43.74
69127;BME280;56688;50.234;19.292;2024-02-15T09:35:11;99039.61;;;18.15;43.78
69127;BME280;56688;50.234;19.292;2024-02-15T09:37:44;99040.97;;;18.00;42.73
69127;BME280;56688;50.234;19.292;2024-02-15T09:40:12;99038.69;;;17.57;43.38
69127;BME280;56688;50.234;19.292;2024-02-15T09:42:40;99042.20;;;17.08;44.62
69127;BME280;56688;50.234;19.292;2024-02-15T09:45:08;99042.80;;;16.72;45.47
69127;BME280;56688;50.234;19.292;2024-02-15T09:47:38;99046.23;;;16.36;46.27
69127;BME280;56688;50.234;19.292;2024-02-15T09:50:10;99044.38;;;16.13;47.04
69127;BME280;56688;50.234;19.292;2024-02-15T09:52:44;99040.38;;;15.98;47.17
69127;BME280;56688;50.234;19.292;2024-02-15T09:55:11;99040.65;;;15.90;47.78
69127;BME280;56688;50.234;19.292;2024-02-15T09:57:43;99042.02;;;15.86;48.23
69127;BME280;56688;50.234;19.292;2024-02-15T10:00:13;99038.41;;;15.80;47.83
69127;BME280;56688;50.234;19.292;2024-02-15T10:02:42;99040.64;;;15.58;48.42
69127;BME280;56688;50.234;19.292;2024-02-15T10:05:12;99037.75;;;15.63;49.33
69127;BME280;56688;50.234;19.292;2024-02-15T10:07:41;99040.63;;;15.73;48.58
69127;BME280;56688;50.234;19.292;2024-02-15T10:10:16;99037.05;;;15.75;48.66
69127;BME280;56688;50.234;19.292;2024-02-15T10:12:44;99041.94;;;15.81;48.62
69127;BME280;56688;50.234;19.292;2024-02-15T10:18:01;99037.16;;;15.57;48.25
69127;BME280;56688;50.234;19.292;2024-02-15T10:20:28;99039.38;;;15.41;48.94
69127;BME280;56688;50.234;19.292;2024-02-15T10:25:27;99035.80;;;15.25;48.96
69127;BME280;56688;50.234;19.292;2024-02-15T10:28:08;99033.06;;;15.16;49.29
69127;BME280;56688;50.234;19.292;2024-02-15T10:30:37;99025.92;;;15.02;49.44
69127;BME280;56688;50.234;19.292;2024-02-15T10:33:07;99028.92;;;14.98;50.39
69127;BME280;56688;50.234;19.292;2024-02-15T10:35:35;99027.73;;;15.01;50.15
69127;BME280;56688;50.234;19.292;2024-02-15T10:38:06;99024.09;;;15.03;50.83
69127;BME280;56688;50.234;19.292;2024-02-15T10:40:35;99025.75;;;15.05;50.00
69127;BME280;56688;50.234;19.292;2024-02-15T10:43:03;99024.69;;;14.95;50.59
69127;BME280;56688;50.234;19.292;2024-02-15T10:45:32;99022.63;;;14.94;50.40
69127;BME280;56688;50.234;19.292;2024-02-15T10:48:00;99018.93;;;14.90;50.63
69127;BME280;56688;50.234;19.292;2024-02-15T10:50:27;99018.35;;;14.93;50.54
69127;BME280;56688;50.234;19.292;2024-02-15T10:52:56;99015.20;;;15.04;51.56
69127;BME280;56688;50.234;19.292;2024-02-15T10:55:32;99015.52;;;15.30;51.18
69127;BME280;56688;50.234;19.292;2024-02-15T10:58:03;99015.44;;;15.42;50.22
69127;BME280;56688;50.234;19.292;2024-02-15T11:00:34;99013.48;;;15.32;49.93
69127;BME280;56688;50.234;19.292;2024-02-15T11:03:04;99011.83;;;15.19;50.33
69127;BME280;56688;50.234;19.292;2024-02-15T11:05:34;99013.54;;;15.06;50.74
69127;BME280;56688;50.234;19.292;2024-02-15T11:08:04;99006.88;;;14.90;51.24
69127;BME280;56688;50.234;19.292;2024-02-15T11:10:34;99012.10;;;14.72;51.46
69127;BME280;56688;50.234;19.292;2024-02-15T11:13:02;99009.45;;;14.50;51.82
69127;BME280;56688;50.234;19.292;2024-02-15T11:18:03;99007.79;;;14.17;52.97
69127;BME280;56688;50.234;19.292;2024-02-15T11:23:03;99009.90;;;14.03;53.36
69127;BME280;56688;50.234;19.292;2024-02-15T11:25:33;99010.04;;;13.96;53.93
69127;BME280;56688;50.234;19.292;2024-02-15T11:30:49;99010.36;;;13.97;54.40
69127;BME280;56688;50.234;19.292;2024-02-15T11:33:28;99012.57;;;14.01;54.31
69127;BME280;56688;50.234;19.292;2024-02-15T11:38:34;99006.95;;;14.02;54.13
69127;BME280;56688;50.234;19.292;2024-02-15T11:46:13;98996.06;;;13.85;54.33
69127;BME280;56688;50.234;19.292;2024-02-15T11:48:40;98995.52;;;13.82;54.14
69127;BME280;56688;50.234;19.292;2024-02-15T11:51:08;98991.48;;;13.83;54.55
69127;BME280;56688;50.234;19.292;2024-02-15T11:53:38;98985.73;;;13.84;54.57
69127;BME280;56688;50.234;19.292;2024-02-15T11:56:07;98986.73;;;13.85;54.70
69127;BME280;56688;50.234;19.292;2024-02-15T11:58:37;98974.20;;;13.86;54.35
69127;BME280;56688;50.234;19.292;2024-02-15T12:01:20;98971.27;;;14.00;54.93
69127;BME280;56688;50.234;19.292;2024-02-15T12:04:07;98970.06;;;14.25;54.12
69127;BME280;56688;50.234;19.292;2024-02-15T12:06:58;98968.89;;;14.75;53.43
69127;BME280;56688;50.234;19.292;2024-02-15T12:09:45;98973.06;;;15.15;52.38
69127;BME280;56688;50.234;19.292;2024-02-15T12:12:32;98973.19;;;15.44;50.86
69127;BME280;56688;50.234;19.292;2024-02-15T12:15:20;98973.40;;;15.43;50.61
69127;BME280;56688;50.234;19.292;2024-02-15T12:18:15;98967.13;;;15.48;50.24
69127;BME280;56688;50.234;19.292;2024-02-15T12:21:02;98962.15;;;15.50;50.43
69127;BME280;56688;50.234;19.292;2024-02-15T12:23:32;98961.95;;;15.64;50.49
69127;BME280;56688;50.234;19.292;2024-02-15T12:26:01;98958.43;;;15.89;49.99
69127;BME280;56688;50.234;19.292;2024-02-15T12:28:31;98957.92;;;16.08;49.06
69127;BME280;56688;50.234;19.292;2024-02-15T12:30:58;98950.48;;;16.41;47.99
69127;BME280;56688;50.234;19.292;2024-02-15T12:33:25;98947.20;;;16.60;47.34
69127;BME280;56688;50.234;19.292;2024-02-15T12:36:06;98940.05;;;16.72;47.14
69127;BME280;56688;50.234;19.292;2024-02-15T12:38:35;98943.02;;;16.84;47.27
69127;BME280;56688;50.234;19.292;2024-02-15T12:41:18;98939.70;;;17.17;46.21
69127;BME280;56688;50.234;19.292;2024-02-15T12:44:05;98936.40;;;17.61;45.93
69127;BME280;56688;50.234;19.292;2024-02-15T12:46:34;98935.05;;;18.05;44.91
69127;BME280;56688;50.234;19.292;2024-02-15T12:49:08;98933.84;;;18.21;44.21
69127;BME280;56688;50.234;19.292;2024-02-15T12:51:41;98934.94;;;18.58;43.83
69127;BME280;56688;50.234;19.292;2024-02-15T12:54:20;98933.08;;;18.77;42.68
69127;BME280;56688;50.234;19.292;2024-02-15T12:56:48;98932.65;;;18.66;42.99
69127;BME280;56688;50.234;19.292;2024-02-15T12:59:16;98929.38;;;18.66;43.06
69127;BME280;56688;50.234;19.292;2024-02-15T13:01:46;98927.09;;;18.45;42.85
69127;BME280;56688;50.234;19.292;2024-02-15T13:04:25;98926.51;;;18.03;43.67
69127;BME280;56688;50.234;19.292;2024-02-15T13:06:53;98927.84;;;17.60;44.24
69127;BME280;56688;50.234;19.292;2024-02-15T13:09:20;98925.58;;;17.18;45.15
69127;BME280;56688;50.234;19.292;2024-02-15T13:11:50;98924.29;;;16.78;46.45
69127;BME280;56688;50.234;19.292;2024-02-15T13:14:17;98922.55;;;16.52;46.87
69127;BME280;56688;50.234;19.292;2024-02-15T13:16:44;98931.32;;;16.34;47.44
69127;BME280;56688;50.234;19.292;2024-02-15T13:19:13;98934.15;;;16.20;48.06
69127;BME280;56688;50.234;19.292;2024-02-15T13:21:40;98932.89;;;16.03;48.04
69127;BME280;56688;50.234;19.292;2024-02-15T13:24:07;98935.85;;;15.83;48.57
69127;BME280;56688;50.234;19.292;2024-02-15T13:26:35;98928.64;;;15.63;49.56
69127;BME280;56688;50.234;19.292;2024-02-15T13:29:03;98930.05;;;15.52;50.00
69127;BME280;56688;50.234;19.292;2024-02-15T13:31:30;98929.33;;;15.38;50.01